sensor_id;sensor_type;location;lat;lon;timestamp;pressure;altitude;pressure_sealevel;temperature;humidity
61761;BME280;47664;51.660;-0.100;2023-05-20T00:00:47;102104.49;;;11.23;50.43
61761;BME280;47664;51.660;-0.100;2023-05-20T00:03:15;102104.32;;;11.49;50.19
61761;BME280;47664;51.660;-0.100;2023-05-20T00:05:42;102101.36;;;11.50;50.92
61761;BME280;47664;51.660;-0.100;2023-05-20T00:08:09;102101.67;;;11.81;50.52
61761;BME280;47664;51.660;-0.100;2023-05-20T00:10:37;102097.45;;;11.27;50.23
61761;BME280;47664;51.660;-0.100;2023-05-20T00:13:05;102093.95;;;11.60;49.94
61761;BME280;47664;51.660;-0.100;2023-05-20T00:15:33;102088.63;;;11.39;50.37
61761;BME280;47664;51.660;-0.100;2023-05-20T00:18:01;102085.62;;;11.66;49.93
61761;BME280;47664;51.660;-0.100;2023-05-20T00:20:30;102085.53;;;11.70;49.76
61761;BME280;47664;51.660;-0.100;2023-05-20T00:22:57;102083.21;;;11.57;49.97
61761;BME280;47664;51.660;-0.100;2023-05-20T00:25:25;102084.44;;;11.71;49.79
61761;BME280;47664;51.660;-0.100;2023-05-20T00:27:52;102085.22;;;11.57;49.94
61761;BME280;47664;51.660;-0.100;2023-05-20T00:30:20;102083.65;;;11.29;49.68
61761;BME280;47664;51.660;-0.100;2023-05-20T00:32:48;102085.44;;;11.41;50.07
61761;BME280;47664;51.660;-0.100;2023-05-20T00:35:15;102084.05;;;11.61;49.64
61761;BME280;47664;51.660;-0.100;2023-05-20T00:37:43;102080.88;;;11.50;49.91
61761;BME280;47664;51.660;-0.100;2023-05-20T00:40:11;102082.13;;;11.01;50.60
61761;BME280;47664;51.660;-0.100;2023-05-20T00:42:39;102083.93;;;11.28;50.46
61761;BME280;47664;51.660;-0.100;2023-05-20T00:45:07;102080.89;;;11.21;50.42
61761;BME280;47664;51.660;-0.100;2023-05-20T00:47:35;102077.78;;;11.20;50.21
61761;BME280;47664;51.660;-0.100;2023-05-20T00:50:03;102075.15;;;11.32;50.36
61761;BME280;47664;51.660;-0.100;2023-05-20T00:52:32;102076.17;;;11.16;50.49
61761;BME280;47664;51.660;-0.100;2023-05-20T00:55:00;102073.86;;;10.99;50.78
61761;BME280;47664;51.660;-0.100;2023-05-20T00:57:28;102074.75;;;11.15;50.76
61761;BME280;47664;51.660;-0.100;2023-05-20T00:59:56;102077.25;;;11.42;50.62
61761;BME280;47664;51.660;-0.100;2023-05-20T01:02:24;102073.39;;;10.14;50.81
61761;BME280;47664;51.660;-0.100;2023-05-20T01:04:52;102074.00;;;11.07;50.78
61761;BME280;47664;51.660;-0.100;2023-05-20T01:07:19;102073.31;;;11.11;50.81
61761;BME280;47664;51.660;-0.100;2023-05-20T01:09:47;102071.41;;;11.38;50.78
61761;BME280;47664;51.660;-0.100;2023-05-20T01:12:20;102070.08;;;10.89;51.34
61761;BME280;47664;51.660;-0.100;2023-05-20T01:14:50;102068.48;;;10.83;51.50
61761;BME280;47664;51.660;-0.100;2023-05-20T01:17:23;102064.04;;;11.24;51.45
61761;BME280;47664;51.660;-0.100;2023-05-20T01:19:54;102066.20;;;10.90;52.34
61761;BME280;47664;51.660;-0.100;2023-05-20T01:22:24;102060.18;;;10.76;52.05
61761;BME280;47664;51.660;-0.100;2023-05-20T01:24:51;102060.22;;;10.28;52.58
61761;BME280;47664;51.660;-0.100;2023-05-20T01:27:21;102053.65;;;10.92;52.42
61761;BME280;47664;51.660;-0.100;2023-05-20T01:29:50;102052.84;;;11.11;51.75
61761;BME280;47664;51.660;-0.100;2023-05-20T01:32:21;102049.87;;;10.25;52.01
61761;BME280;47664;51.660;-0.100;2023-05-20T01:34:51;102043.90;;;10.86;52.22
61761;BME280;47664;51.660;-0.100;2023-05-20T01:37:19;102040.10;;;10.53;53.00
61761;BME280;47664;51.660;-0.100;2023-05-20T01:39:49;102036.93;;;11.09;52.37
61761;BME280;47664;51.660;-0.100;2023-05-20T01:42:17;102034.87;;;9.95;52.19
61761;BME280;47664;51.660;-0.100;2023-05-20T01:44:45;102035.19;;;10.75;52.89
61761;BME280;47664;51.660;-0.100;2023-05-20T01:47:12;102033.29;;;10.21;53.02
61761;BME280;47664;51.660;-0.100;2023-05-20T01:49:39;102032.84;;;10.31;52.91
61761;BME280;47664;51.660;-0.100;2023-05-20T01:52:07;102030.91;;;10.33;52.72
61761;BME280;47664;51.660;-0.100;2023-05-20T01:54:34;102034.42;;;10.60;52.13
61761;BME280;47664;51.660;-0.100;2023-05-20T01:57:03;102032.54;;;10.78;52.66
61761;BME280;47664;51.660;-0.100;2023-05-20T01:59:30;102032.38;;;10.56;52.80
61761;BME280;47664;51.660;-0.100;2023-05-20T02:01:57;102039.39;;;10.65;53.01
61761;BME280;47664;51.660;-0.100;2023-05-20T02:04:25;102039.56;;;9.56;53.31
61761;BME280;47664;51.660;-0.100;2023-05-20T02:06:52;102039.73;;;10.59;53.35
61761;BME280;47664;51.660;-0.100;2023-05-20T02:09:20;102038.00;;;10.23;53.52
61761;BME280;47664;51.660;-0.100;2023-05-20T02:11:47;102035.50;;;10.42;53.56
61761;BME280;47664;51.660;-0.100;2023-05-20T02:14:15;102030.73;;;9.99;53.56
61761;BME280;47664;51.660;-0.100;2023-05-20T02:16:42;102030.87;;;10.33;54.01
61761;BME280;47664;51.660;-0.100;2023-05-20T02:19:10;102024.72;;;10.25;54.21
61761;BME280;47664;51.660;-0.100;2023-05-20T02:21:38;102028.56;;;9.89;55.88
61761;BME280;47664;51.660;-0.100;2023-05-20T02:24:05;102028.17;;;9.98;55.98
61761;BME280;47664;51.660;-0.100;2023-05-20T02:26:33;102023.21;;;9.27;56.49
61761;BME280;47664;51.660;-0.100;2023-05-20T02:29:00;102023.78;;;9.92;55.71
61761;BME280;47664;51.660;-0.100;2023-05-20T02:31:27;102024.10;;;10.04;55.39
61761;BME280;47664;51.660;-0.100;2023-05-20T02:33:54;102020.85;;;10.00;55.14
61761;BME280;47664;51.660;-0.100;2023-05-20T02:36:21;102019.15;;;10.27;54.98
61761;BME280;47664;51.660;-0.100;2023-05-20T02:38:49;102020.63;;;9.62;55.44
61761;BME280;47664;51.660;-0.100;2023-05-20T02:41:16;102022.49;;;10.10;55.69
61761;BME280;47664;51.660;-0.100;2023-05-20T02:43:43;102025.29;;;10.00;56.06
61761;BME280;47664;51.660;-0.100;2023-05-20T02:46:11;102029.15;;;9.86;56.60
61761;BME280;47664;51.660;-0.100;2023-05-20T02:48:38;102022.48;;;10.10;56.82
61761;BME280;47664;51.660;-0.100;2023-05-20T02:51:05;102017.29;;;9.66;57.33
61761;BME280;47664;51.660;-0.100;2023-05-20T02:53:32;102019.09;;;9.49;57.49
61761;BME280;47664;51.660;-0.100;2023-05-20T02:56:00;102016.91;;;9.77;57.94
61761;BME280;47664;51.660;-0.100;2023-05-20T02:58:27;102023.29;;;9.06;57.66
61761;BME280;47664;51.660;-0.100;2023-05-20T03:00:54;102027.15;;;9.65;57.91
61761;BME280;47664;51.660;-0.100;2023-05-20T03:03:23;102026.43;;;9.75;58.33
61761;BME280;47664;51.660;-0.100;2023-05-20T03:05:51;102026.25;;;9.64;58.81
61761;BME280;47664;51.660;-0.100;2023-05-20T03:08:20;102024.86;;;9.19;57.96
61761;BME280;47664;51.660;-0.100;2023-05-20T03:10:48;102021.81;;;9.68;58.22
61761;BME280;47664;51.660;-0.100;2023-05-20T03:13:16;102020.43;;;10.12;57.97
61761;BME280;47664;51.660;-0.100;2023-05-20T03:15:43;102023.43;;;9.91;58.13
61761;BME280;47664;51.660;-0.100;2023-05-20T03:18:11;102022.15;;;9.85;57.80
61761;BME280;47664;51.660;-0.100;2023-05-20T03:20:39;102022.35;;;9.99;57.72
61761;BME280;47664;51.660;-0.100;2023-05-20T03:23:06;102020.02;;;10.02;57.50
61761;BME280;47664;51.660;-0.100;2023-05-20T03:25:35;102019.13;;;10.16;57.18
61761;BME280;47664;51.660;-0.100;2023-05-20T03:28:03;102016.93;;;10.18;57.08
61761;BME280;47664;51.660;-0.100;2023-05-20T03:30:31;102016.81;;;9.83;58.14
61761;BME280;47664;51.660;-0.100;2023-05-20T03:32:59;102011.09;;;9.98;58.19
61761;BME280;47664;51.660;-0.100;2023-05-20T03:35:27;102013.58;;;9.73;58.23
61761;BME280;47664;51.660;-0.100;2023-05-20T03:37:54;102010.64;;;9.87;58.17
61761;BME280;47664;51.660;-0.100;2023-05-20T03:40:22;102012.09;;;8.99;58.13
61761;BME280;47664;51.660;-0.100;2023-05-20T03:42:50;102015.72;;;9.49;58.71
61761;BME280;47664;51.660;-0.100;2023-05-20T03:45:18;102009.47;;;10.00;58.27
61761;BME280;47664;51.660;-0.100;2023-05-20T03:47:46;102008.32;;;10.04;58.09
61761;BME280;47664;51.660;-0.100;2023-05-20T03:50:13;102007.07;;;9.90;58.58
61761;BME280;47664;51.660;-0.100;2023-05-20T03:52:41;102012.03;;;9.98;58.79
61761;BME280;47664;51.660;-0.100;2023-05-20T03:55:10;102010.49;;;9.57;59.79
61761;BME280;47664;51.660;-0.100;2023-05-20T03:57:37;102010.00;;;9.05;60.27
61761;BME280;47664;51.660;-0.100;2023-05-20T04:00:06;102007.69;;;9.78;59.63
61761;BME280;47664;51.660;-0.100;2023-05-20T04:02:33;102006.19;;;8.90;60.67
61761;BME280;47664;51.660;-0.100;2023-05-20T04:05:01;102006.84;;;9.52;59.53
61761;BME280;47664;51.660;-0.100;2023-05-20T04:07:28;102001.72;;;9.39;59.71
61761;BME280;47664;51.660;-0.100;2023-05-20T04:09:56;101997.46;;;9.53;59.48
61761;BME280;47664;51.660;-0.100;2023-05-20T04:12:24;101989.81;;;9.25;59.47
61761;BME280;47664;51.660;-0.100;2023-05-20T04:14:51;101991.96;;;8.90;61.13
61761;BME280;47664;51.660;-0.100;2023-05-20T04:17:19;101989.43;;;9.15;61.23
61761;BME280;47664;51.660;-0.100;2023-05-20T04:19:46;101989.92;;;9.49;60.35
61761;BME280;47664;51.660;-0.100;2023-05-20T04:22:14;101990.29;;;8.97;60.35
61761;BME280;47664;51.660;-0.100;2023-05-20T04:24:42;101993.55;;;9.07;61.02
61761;BME280;47664;51.660;-0.100;2023-05-20T04:27:10;101995.92;;;9.42;61.59
61761;BME280;47664;51.660;-0.100;2023-05-20T04:29:37;101995.50;;;9.22;61.12
61761;BME280;47664;51.660;-0.100;2023-05-20T04:32:06;101991.73;;;9.50;60.73
61761;BME280;47664;51.660;-0.100;2023-05-20T04:34:33;101997.20;;;9.17;59.97
61761;BME280;47664;51.660;-0.100;2023-05-20T04:37:01;101998.96;;;9.69;59.88
61761;BME280;47664;51.660;-0.100;2023-05-20T04:39:28;101998.10;;;9.64;60.27
61761;BME280;47664;51.660;-0.100;2023-05-20T04:41:56;101997.04;;;9.79;60.20
61761;BME280;47664;51.660;-0.100;2023-05-20T04:44:24;101995.12;;;9.04;59.72
61761;BME280;47664;51.660;-0.100;2023-05-20T04:46:52;101998.21;;;9.65;59.97
61761;BME280;47664;51.660;-0.100;2023-05-20T04:49:19;101999.40;;;9.34;60.67
61761;BME280;47664;51.660;-0.100;2023-05-20T04:51:46;102002.00;;;9.65;60.19
61761;BME280;47664;51.660;-0.100;2023-05-20T04:54:14;101999.36;;;9.54;60.04
61761;BME280;47664;51.660;-0.100;2023-05-20T04:56:41;101998.44;;;9.75;59.73
61761;BME280;47664;51.660;-0.100;2023-05-20T04:59:10;102000.15;;;9.97;60.18
61761;BME280;47664;51.660;-0.100;2023-05-20T05:01:38;101994.20;;;9.89;59.76
61761;BME280;47664;51.660;-0.100;2023-05-20T05:04:05;101994.40;;;9.82;59.55
61761;BME280;47664;51.660;-0.100;2023-05-20T05:06:32;101996.30;;;9.36;59.34
61761;BME280;47664;51.660;-0.100;2023-05-20T05:09:00;101996.39;;;10.01;59.44
61761;BME280;47664;51.660;-0.100;2023-05-20T05:11:28;101994.30;;;9.69;60.30
61761;BME280;47664;51.660;-0.100;2023-05-20T05:13:55;101990.08;;;10.32;59.63
61761;BME280;47664;51.660;-0.100;2023-05-20T05:16:23;101989.08;;;9.25;59.52
61761;BME280;47664;51.660;-0.100;2023-05-20T05:18:50;101994.19;;;9.93;59.45
61761;BME280;47664;51.660;-0.100;2023-05-20T05:21:18;101990.27;;;9.98;59.66
61761;BME280;47664;51.660;-0.100;2023-05-20T05:23:46;101992.73;;;9.76;61.27
61761;BME280;47664;51.660;-0.100;2023-05-20T05:26:14;101992.57;;;9.30;61.01
61761;BME280;47664;51.660;-0.100;2023-05-20T05:28:41;101991.37;;;9.64;60.48
61761;BME280;47664;51.660;-0.100;2023-05-20T05:31:14;101990.54;;;9.86;59.93
61761;BME280;47664;51.660;-0.100;2023-05-20T05:33:42;101992.35;;;10.06;60.11
61761;BME280;47664;51.660;-0.100;2023-05-20T05:36:11;101992.44;;;9.08;61.61
61761;BME280;47664;51.660;-0.100;2023-05-20T05:38:38;101993.46;;;9.18;61.51
61761;BME280;47664;51.660;-0.100;2023-05-20T05:41:06;101989.65;;;9.55;61.18
61761;BME280;47664;51.660;-0.100;2023-05-20T05:51:16;101990.29;;;9.36;62.31
61761;BME280;47664;51.660;-0.100;2023-05-20T05:53:43;101992.03;;;8.44;60.74
61761;BME280;47664;51.660;-0.100;2023-05-20T05:56:12;101993.30;;;9.84;60.15
61761;BME280;47664;51.660;-0.100;2023-05-20T05:58:39;101992.54;;;9.73;60.60
61761;BME280;47664;51.660;-0.100;2023-05-20T06:01:07;101994.57;;;9.91;60.95
61761;BME280;47664;51.660;-0.100;2023-05-20T06:03:34;101993.10;;;9.39;61.55
61761;BME280;47664;51.660;-0.100;2023-05-20T06:06:01;101991.27;;;9.82;61.38
61761;BME280;47664;51.660;-0.100;2023-05-20T06:08:29;101990.61;;;9.98;60.72
61761;BME280;47664;51.660;-0.100;2023-05-20T06:10:56;101997.89;;;9.84;61.15
61761;BME280;47664;51.660;-0.100;2023-05-20T06:13:25;101999.52;;;9.15;60.97
61761;BME280;47664;51.660;-0.100;2023-05-20T06:15:53;101999.76;;;10.08;61.07
61761;BME280;47664;51.660;-0.100;2023-05-20T06:18:21;102000.95;;;9.98;60.65
61761;BME280;47664;51.660;-0.100;2023-05-20T06:20:54;101999.34;;;10.07;60.75
61761;BME280;47664;51.660;-0.100;2023-05-20T06:23:21;101993.71;;;9.86;59.49
61761;BME280;47664;51.660;-0.100;2023-05-20T06:25:49;101995.93;;;10.40;59.32
61761;BME280;47664;51.660;-0.100;2023-05-20T06:28:17;101997.86;;;9.31;59.85
61761;BME280;47664;51.660;-0.100;2023-05-20T06:30:45;101995.79;;;9.41;58.73
61761;BME280;47664;51.660;-0.100;2023-05-20T06:33:13;101993.24;;;10.54;58.72
61761;BME280;47664;51.660;-0.100;2023-05-20T06:35:41;101987.05;;;10.58;58.64
61761;BME280;47664;51.660;-0.100;2023-05-20T06:38:08;101986.23;;;10.92;58.20
61761;BME280;47664;51.660;-0.100;2023-05-20T06:40:36;101991.67;;;11.15;58.11
61761;BME280;47664;51.660;-0.100;2023-05-20T06:43:03;101988.07;;;10.91;57.75
61761;BME280;47664;51.660;-0.100;2023-05-20T06:45:31;101985.01;;;10.02;58.97
61761;BME280;47664;51.660;-0.100;2023-05-20T06:47:58;101979.99;;;10.43;59.46
61761;BME280;47664;51.660;-0.100;2023-05-20T06:50:26;101977.07;;;10.37;59.90
61761;BME280;47664;51.660;-0.100;2023-05-20T06:52:54;101973.12;;;10.62;59.41
61761;BME280;47664;51.660;-0.100;2023-05-20T06:55:22;101974.05;;;10.11;58.69
61761;BME280;47664;51.660;-0.100;2023-05-20T06:57:49;101970.56;;;10.40;59.50
61761;BME280;47664;51.660;-0.100;2023-05-20T07:00:17;101968.04;;;10.62;59.63
61761;BME280;47664;51.660;-0.100;2023-05-20T07:02:45;101965.93;;;10.37;59.55
61761;BME280;47664;51.660;-0.100;2023-05-20T07:05:14;101968.35;;;10.08;60.54
61761;BME280;47664;51.660;-0.100;2023-05-20T07:07:41;101963.64;;;10.35;60.60
61761;BME280;47664;51.660;-0.100;2023-05-20T07:10:08;101963.74;;;10.81;60.33
61761;BME280;47664;51.660;-0.100;2023-05-20T07:12:36;101963.00;;;10.97;58.88
61761;BME280;47664;51.660;-0.100;2023-05-20T07:15:03;101964.54;;;10.62;59.25
61761;BME280;47664;51.660;-0.100;2023-05-20T07:17:31;101963.21;;;10.68;58.60
61761;BME280;47664;51.660;-0.100;2023-05-20T07:19:58;101964.48;;;11.20;58.39
61761;BME280;47664;51.660;-0.100;2023-05-20T07:22:26;101963.82;;;11.54;57.45
61761;BME280;47664;51.660;-0.100;2023-05-20T07:24:53;101963.85;;;12.15;56.70
61761;BME280;47664;51.660;-0.100;2023-05-20T07:27:21;101966.14;;;10.97;57.05
61761;BME280;47664;51.660;-0.100;2023-05-20T07:29:48;101966.69;;;11.22;57.07
61761;BME280;47664;51.660;-0.100;2023-05-20T07:32:17;101963.21;;;10.93;57.70
61761;BME280;47664;51.660;-0.100;2023-05-20T07:34:44;101963.69;;;11.84;56.29
61761;BME280;47664;51.660;-0.100;2023-05-20T07:37:13;101961.54;;;11.27;56.90
61761;BME280;47664;51.660;-0.100;2023-05-20T07:39:40;101959.00;;;11.89;56.34
61761;BME280;47664;51.660;-0.100;2023-05-20T07:42:09;101953.55;;;11.53;54.67
61761;BME280;47664;51.660;-0.100;2023-05-20T07:44:36;101948.40;;;12.37;54.90
61761;BME280;47664;51.660;-0.100;2023-05-20T07:47:04;101952.83;;;12.74;55.02
61761;BME280;47664;51.660;-0.100;2023-05-20T07:49:32;101950.14;;;12.14;55.06
61761;BME280;47664;51.660;-0.100;2023-05-20T07:51:59;101951.60;;;12.37;54.89
61761;BME280;47664;51.660;-0.100;2023-05-20T07:54:26;101953.43;;;12.72;54.82
61761;BME280;47664;51.660;-0.100;2023-05-20T07:56:54;101951.46;;;13.36;53.11
61761;BME280;47664;51.660;-0.100;2023-05-20T07:59:22;101948.99;;;12.21;54.09
61761;BME280;47664;51.660;-0.100;2023-05-20T08:01:50;101944.72;;;13.05;53.35
61761;BME280;47664;51.660;-0.100;2023-05-20T08:04:18;101941.62;;;13.53;52.75
61761;BME280;47664;51.660;-0.100;2023-05-20T08:06:46;101937.86;;;13.75;52.01
61761;BME280;47664;51.660;-0.100;2023-05-20T08:09:13;101933.92;;;13.85;51.47
61761;BME280;47664;51.660;-0.100;2023-05-20T08:11:41;101934.15;;;13.38;51.07
61761;BME280;47664;51.660;-0.100;2023-05-20T08:14:08;101926.75;;;14.26;51.51
61761;BME280;47664;51.660;-0.100;2023-05-20T08:16:36;101917.90;;;14.41;50.99
61761;BME280;47664;51.660;-0.100;2023-05-20T08:19:04;101920.18;;;14.05;50.67
61761;BME280;47664;51.660;-0.100;2023-05-20T08:21:32;101914.34;;;13.69;50.76
61761;BME280;47664;51.660;-0.100;2023-05-20T08:23:59;101909.62;;;14.22;50.28
61761;BME280;47664;51.660;-0.100;2023-05-20T08:26:27;101909.30;;;14.13;50.67
61761;BME280;47664;51.660;-0.100;2023-05-20T08:28:55;101912.09;;;14.47;50.59
61761;BME280;47664;51.660;-0.100;2023-05-20T08:31:23;101913.85;;;13.29;50.78
61761;BME280;47664;51.660;-0.100;2023-05-20T08:33:50;101911.78;;;13.71;51.03
61761;BME280;47664;51.660;-0.100;2023-05-20T08:36:18;101909.17;;;14.03;50.46
61761;BME280;47664;51.660;-0.100;2023-05-20T08:38:46;101905.72;;;14.25;50.67
61761;BME280;47664;51.660;-0.100;2023-05-20T08:41:15;101905.71;;;14.08;50.46
61761;BME280;47664;51.660;-0.100;2023-05-20T08:43:42;101906.83;;;14.26;50.11
61761;BME280;47664;51.660;-0.100;2023-05-20T08:51:09;101908.19;;;14.52;50.09
61761;BME280;47664;51.660;-0.100;2023-05-20T08:53:36;101908.00;;;13.97;48.49
61761;BME280;47664;51.660;-0.100;2023-05-20T08:56:06;101906.63;;;15.14;48.12
61761;BME280;47664;51.660;-0.100;2023-05-20T08:58:34;101905.70;;;15.50;47.65
61761;BME280;47664;51.660;-0.100;2023-05-20T09:01:04;101902.89;;;15.81;47.95
61761;BME280;47664;51.660;-0.100;2023-05-20T09:03:32;101903.34;;;15.67;47.54
61761;BME280;47664;51.660;-0.100;2023-05-20T09:06:05;101897.48;;;15.97;47.19
61761;BME280;47664;51.660;-0.100;2023-05-20T09:08:34;101892.69;;;16.15;46.26
61761;BME280;47664;51.660;-0.100;2023-05-20T09:11:02;101888.32;;;16.49;46.14
61761;BME280;47664;51.660;-0.100;2023-05-20T09:13:30;101887.73;;;16.16;46.34
61761;BME280;47664;51.660;-0.100;2023-05-20T09:15:59;101886.84;;;16.17;46.31
61761;BME280;47664;51.660;-0.100;2023-05-20T09:18:27;101886.41;;;15.99;47.16
61761;BME280;47664;51.660;-0.100;2023-05-20T09:20:55;101880.76;;;16.23;46.75
61761;BME280;47664;51.660;-0.100;2023-05-20T09:23:22;101881.30;;;16.46;45.96
61761;BME280;47664;51.660;-0.100;2023-05-20T09:25:50;101882.18;;;16.73;45.59
61761;BME280;47664;51.660;-0.100;2023-05-20T09:28:19;101885.24;;;16.43;45.57
61761;BME280;47664;51.660;-0.100;2023-05-20T09:30:48;101880.22;;;16.45;45.80
61761;BME280;47664;51.660;-0.100;2023-05-20T09:33:16;101879.08;;;16.12;45.70
61761;BME280;47664;51.660;-0.100;2023-05-20T09:35:44;101873.37;;;16.77;45.08
61761;BME280;47664;51.660;-0.100;2023-05-20T09:38:13;101872.76;;;17.14;44.10
61761;BME280;47664;51.660;-0.100;2023-05-20T09:40:44;101873.30;;;17.12;44.61
61761;BME280;47664;51.660;-0.100;2023-05-20T09:43:13;101873.83;;;16.24;44.45
61761;BME280;47664;51.660;-0.100;2023-05-20T09:45:41;101861.92;;;17.02;43.80
61761;BME280;47664;51.660;-0.100;2023-05-20T09:48:09;101863.84;;;17.36;43.97
61761;BME280;47664;51.660;-0.100;2023-05-20T09:50:37;101864.17;;;17.75;43.64
61761;BME280;47664;51.660;-0.100;2023-05-20T09:53:06;101864.10;;;17.40;42.35
61761;BME280;47664;51.660;-0.100;2023-05-20T09:55:35;101862.46;;;17.11;42.33
61761;BME280;47664;51.660;-0.100;2023-05-20T09:58:03;101864.13;;;16.51;41.91
61761;BME280;47664;51.660;-0.100;2023-05-20T10:00:31;101858.65;;;17.36;40.03
61761;BME280;47664;51.660;-0.100;2023-05-20T10:02:59;101855.93;;;18.27;39.89
61761;BME280;47664;51.660;-0.100;2023-05-20T10:05:29;101853.09;;;17.68;39.71
61761;BME280;47664;51.660;-0.100;2023-05-20T10:08:30;101848.28;;;18.48;39.11
61761;BME280;47664;51.660;-0.100;2023-05-20T10:11:10;101850.82;;;19.08;38.30
61761;BME280;47664;51.660;-0.100;2023-05-20T10:13:55;101847.44;;;19.45;37.20
61761;BME280;47664;51.660;-0.100;2023-05-20T10:16:33;101849.10;;;20.10;35.53
61761;BME280;47664;51.660;-0.100;2023-05-20T10:19:11;101841.85;;;20.59;34.99
61761;BME280;47664;51.660;-0.100;2023-05-20T10:21:40;101844.42;;;20.08;35.71
61761;BME280;47664;51.660;-0.100;2023-05-20T10:24:09;101843.10;;;20.22;35.64
61761;BME280;47664;51.660;-0.100;2023-05-20T10:26:37;101836.42;;;20.62;36.08
61761;BME280;47664;51.660;-0.100;2023-05-20T10:29:21;101839.59;;;21.05;35.07
61761;BME280;47664;51.660;-0.100;2023-05-20T10:31:50;101837.16;;;20.93;34.97
61761;BME280;47664;51.660;-0.100;2023-05-20T10:34:19;101833.63;;;21.20;34.65
61761;BME280;47664;51.660;-0.100;2023-05-20T10:36:57;101834.25;;;20.09;36.25
61761;BME280;47664;51.660;-0.100;2023-05-20T10:39:27;101827.94;;;19.09;36.92
61761;BME280;47664;51.660;-0.100;2023-05-20T10:42:06;101830.06;;;18.76;38.16
61761;BME280;47664;51.660;-0.100;2023-05-20T10:44:41;101838.44;;;19.34;37.31
61761;BME280;47664;51.660;-0.100;2023-05-20T10:47:10;101832.35;;;19.06;36.76
61761;BME280;47664;51.660;-0.100;2023-05-20T10:49:40;101831.70;;;18.97;36.48
61761;BME280;47664;51.660;-0.100;2023-05-20T10:52:11;101829.76;;;18.31;37.79
61761;BME280;47664;51.660;-0.100;2023-05-20T10:54:42;101827.56;;;18.40;37.68
61761;BME280;47664;51.660;-0.100;2023-05-20T10:57:11;101820.35;;;17.64;38.05
61761;BME280;47664;51.660;-0.100;2023-05-20T10:59:38;101820.68;;;18.33;38.53
61761;BME280;47664;51.660;-0.100;2023-05-20T11:02:05;101815.73;;;17.37;38.67
61761;BME280;47664;51.660;-0.100;2023-05-20T11:04:34;101812.41;;;17.90;38.42
61761;BME280;47664;51.660;-0.100;2023-05-20T11:07:01;101807.20;;;17.96;38.00
61761;BME280;47664;51.660;-0.100;2023-05-20T11:09:29;101806.35;;;17.36;38.97
61761;BME280;47664;51.660;-0.100;2023-05-20T11:11:56;101811.41;;;17.40;39.26
61761;BME280;47664;51.660;-0.100;2023-05-20T11:14:26;101806.46;;;17.75;38.85
61761;BME280;47664;51.660;-0.100;2023-05-20T11:16:56;101802.22;;;18.09;38.47
61761;BME280;47664;51.660;-0.100;2023-05-20T11:19:24;101793.99;;;17.32;38.46
61761;BME280;47664;51.660;-0.100;2023-05-20T11:21:51;101796.22;;;17.96;38.24
61761;BME280;47664;51.660;-0.100;2023-05-20T11:24:24;101796.08;;;17.73;37.83
61761;BME280;47664;51.660;-0.100;2023-05-20T11:26:52;101798.98;;;17.13;39.08
61761;BME280;47664;51.660;-0.100;2023-05-20T11:29:20;101796.55;;;16.86;38.63
61761;BME280;47664;51.660;-0.100;2023-05-20T11:31:48;101797.29;;;17.38;39.31
61761;BME280;47664;51.660;-0.100;2023-05-20T11:34:19;101794.47;;;17.48;39.38
61761;BME280;47664;51.660;-0.100;2023-05-20T11:36:46;101791.23;;;17.83;38.83
61761;BME280;47664;51.660;-0.100;2023-05-20T11:39:14;101786.93;;;17.64;38.23
61761;BME280;47664;51.660;-0.100;2023-05-20T11:41:42;101778.01;;;17.67;38.38
61761;BME280;47664;51.660;-0.100;2023-05-20T11:44:11;101780.81;;;18.14;37.97
61761;BME280;47664;51.660;-0.100;2023-05-20T11:46:42;101782.90;;;17.84;37.34
61761;BME280;47664;51.660;-0.100;2023-05-20T11:49:12;101788.45;;;16.53;37.46
61761;BME280;47664;51.660;-0.100;2023-05-20T11:51:40;101783.58;;;17.38;37.47
61761;BME280;47664;51.660;-0.100;2023-05-20T11:54:09;101774.21;;;17.79;37.43
61761;BME280;47664;51.660;-0.100;2023-05-20T11:56:37;101763.03;;;17.97;38.02
61761;BME280;47664;51.660;-0.100;2023-05-20T11:59:07;101766.40;;;18.19;38.62
61761;BME280;47664;51.660;-0.100;2023-05-20T12:01:36;101759.29;;;18.24;37.77
61761;BME280;47664;51.660;-0.100;2023-05-20T12:04:04;101765.18;;;18.81;36.88
61761;BME280;47664;51.660;-0.100;2023-05-20T12:06:32;101758.38;;;19.55;35.93
61761;BME280;47664;51.660;-0.100;2023-05-20T12:09:01;101755.78;;;18.99;35.56
61761;BME280;47664;51.660;-0.100;2023-05-20T12:11:29;101754.39;;;18.70;36.14
61761;BME280;47664;51.660;-0.100;2023-05-20T12:14:02;101752.90;;;18.96;34.76
61761;BME280;47664;51.660;-0.100;2023-05-20T12:16:30;101746.99;;;18.62;32.13
61761;BME280;47664;51.660;-0.100;2023-05-20T12:18:59;101732.70;;;17.72;35.32
61761;BME280;47664;51.660;-0.100;2023-05-20T12:21:28;101740.98;;;17.93;36.62
61761;BME280;47664;51.660;-0.100;2023-05-20T12:23:57;101743.09;;;18.28;35.74
61761;BME280;47664;51.660;-0.100;2023-05-20T12:26:26;101744.23;;;17.26;33.97
61761;BME280;47664;51.660;-0.100;2023-05-20T12:28:55;101738.79;;;18.54;34.88
61761;BME280;47664;51.660;-0.100;2023-05-20T12:31:23;101737.21;;;17.46;35.64
61761;BME280;47664;51.660;-0.100;2023-05-20T12:33:51;101733.61;;;18.15;35.63
61761;BME280;47664;51.660;-0.100;2023-05-20T12:36:20;101736.21;;;18.67;35.01
61761;BME280;47664;51.660;-0.100;2023-05-20T12:38:47;101737.25;;;18.65;36.07
61761;BME280;47664;51.660;-0.100;2023-05-20T12:41:14;101737.63;;;18.30;35.87
61761;BME280;47664;51.660;-0.100;2023-05-20T12:43:42;101734.23;;;18.30;36.31
61761;BME280;47664;51.660;-0.100;2023-05-20T12:46:09;101727.33;;;18.64;34.73
61761;BME280;47664;51.660;-0.100;2023-05-20T12:48:37;101726.48;;;18.69;35.55
61761;BME280;47664;51.660;-0.100;2023-05-20T12:51:05;101726.27;;;19.10;35.49
61761;BME280;47664;51.660;-0.100;2023-05-20T12:53:32;101730.58;;;18.76;35.43
61761;BME280;47664;51.660;-0.100;2023-05-20T12:56:00;101729.96;;;18.74;35.07
61761;BME280;47664;51.660;-0.100;2023-05-20T12:58:28;101736.22;;;18.53;33.85
61761;BME280;47664;51.660;-0.100;2023-05-20T13:00:55;101729.83;;;18.65;33.25